Time;durP1;ratioP1;P1;durP2;ratioP2;P2;SDS_P1;SDS_P2;PMS_P1;PMS_P2;Temp;Humidity;BMP_temperature;BMP_pressure;BME280_temperature;BME280_humidity;BME280_pressure;Samples;Min_cycle;Max_cycle;Signal;HPM_P1;HPM_P2
2022/11/28 00:02:14;;;;;;;21.83;15.98;;;5.80;99.90;;;;;;4960716;28;20481;-79
2022/11/28 00:04:40;;;;;;;21.60;16.50;;;5.80;99.90;;;;;;4967640;28;20102;-78
2022/11/28 00:07:05;;;;;;;19.02;15.90;;;5.80;99.90;;;;;;4983238;28;20041;-79
2022/11/28 00:09:31;;;;;;;27.25;17.30;;;5.80;99.90;;;;;;4980096;28;20448;-79
2022/11/28 00:11:56;;;;;;;20.48;15.88;;;5.80;99.90;;;;;;4989290;28;20069;-79
2022/11/28 00:14:22;;;;;;;18.10;15.57;;;5.80;99.90;;;;;;4986399;28;20049;-78
2022/11/28 00:16:48;;;;;;;19.45;15.55;;;5.80;99.90;;;;;;4980212;28;20041;-79
2022/11/28 00:19:14;;;;;;;20.60;16.48;;;5.80;99.90;;;;;;4980216;28;20046;-78
2022/11/28 00:21:40;;;;;;;18.95;16.15;;;5.90;99.90;;;;;;4994673;28;20038;-79
2022/11/28 00:24:06;;;;;;;19.08;15.20;;;5.90;99.90;;;;;;5001113;28;20471;-78
2022/11/28 00:26:38;;;;;;;18.48;15.10;;;5.90;99.90;;;;;;4984292;28;20481;-79
2022/11/28 00:29:05;;;;;;;17.98;15.07;;;5.90;99.90;;;;;;4982545;28;20045;-79
2022/11/28 00:31:34;;;;;;;21.38;15.95;;;5.90;99.90;;;;;;4995275;28;20049;-78
2022/11/28 00:34:01;;;;;;;18.48;14.68;;;5.90;99.90;;;;;;4987434;28;20052;-79
2022/11/28 00:36:28;;;;;;;18.30;14.88;;;5.80;99.90;;;;;;5004074;28;20034;-79
2022/11/28 00:38:53;;;;;;;20.45;16.52;;;5.90;99.90;;;;;;5003687;28;20041;-79
2022/11/28 00:41:23;;;;;;;19.52;16.35;;;5.90;99.90;;;;;;4991588;28;20069;-79
2022/11/28 00:43:50;;;;;;;21.70;16.08;;;5.90;99.90;;;;;;4950595;28;20505;-79
2022/11/28 00:46:16;;;;;;;19.52;15.57;;;5.90;99.90;;;;;;4974311;28;20035;-80
2022/11/28 00:48:42;;;;;;;19.38;14.48;;;5.90;99.90;;;;;;4993259;28;20105;-79
2022/11/28 00:51:16;;;;;;;19.55;15.75;;;5.90;99.90;;;;;;4990853;28;20042;-79
2022/11/28 00:53:44;;;;;;;22.95;16.50;;;5.90;99.90;;;;;;5003553;28;20042;-79
2022/11/28 00:56:15;;;;;;;21.35;15.45;;;5.90;99.90;;;;;;4985302;28;20042;-78
2022/11/28 00:58:41;;;;;;;20.02;15.38;;;5.90;99.90;;;;;;4972347;28;20412;-78
2022/11/28 01:01:15;;;;;;;18.60;15.15;;;5.90;99.90;;;;;;5005591;28;20038;-78
2022/11/28 01:03:41;;;;;;;21.75;16.17;;;5.90;99.90;;;;;;4990972;28;20105;-78
2022/11/28 01:06:09;;;;;;;19.38;15.80;;;6.00;99.90;;;;;;4986685;28;20401;-78
2022/11/28 01:08:35;;;;;;;20.80;15.98;;;6.00;99.90;;;;;;4988307;28;20370;-79
2022/11/28 01:11:01;;;;;;;17.85;15.57;;;5.90;99.90;;;;;;5000095;28;20034;-78
2022/11/28 01:13:27;;;;;;;17.35;14.93;;;6.00;99.90;;;;;;5007525;28;20042;-79
2022/11/28 01:15:53;;;;;;;18.13;13.98;;;6.00;99.90;;;;;;4989827;28;20046;-78
2022/11/28 01:18:18;;;;;;;20.10;15.15;;;6.00;99.90;;;;;;4986861;28;20511;-79
2022/11/28 01:20:44;;;;;;;19.33;15.73;;;6.00;99.90;;;;;;4989704;28;20097;-78
2022/11/28 01:23:09;;;;;;;17.38;14.98;;;6.10;99.90;;;;;;4999549;28;20035;-79
2022/11/28 01:25:35;;;;;;;20.90;15.75;;;6.10;99.90;;;;;;4970867;28;20034;-78
2022/11/28 01:28:01;;;;;;;18.92;14.68;;;6.10;99.90;;;;;;4987164;28;20116;-79
2022/11/28 01:30:26;;;;;;;23.65;16.58;;;6.10;99.90;;;;;;4971368;28;20150;-80
2022/11/28 01:32:52;;;;;;;22.00;16.10;;;6.10;99.90;;;;;;5006345;28;20073;-79
2022/11/28 01:35:18;;;;;;;21.63;16.08;;;6.10;99.90;;;;;;5006608;28;20065;-78
2022/11/28 01:37:43;;;;;;;21.92;16.58;;;6.10;99.90;;;;;;4988351;28;20041;-78
2022/11/28 01:40:13;;;;;;;21.38;15.80;;;6.10;99.90;;;;;;4975421;28;20114;-79
2022/11/28 01:42:38;;;;;;;23.40;17.20;;;6.10;99.90;;;;;;4981887;28;20046;-78
2022/11/28 01:45:27;;;;;;;18.35;15.95;;;6.10;99.90;;;;;;4983306;28;20042;-79
2022/11/28 01:47:56;;;;;;;17.98;16.02;;;6.10;99.90;;;;;;4966499;28;20053;-80
2022/11/28 01:50:22;;;;;;;20.88;15.95;;;6.10;99.90;;;;;;4993407;28;20069;-79
2022/11/28 01:52:54;;;;;;;19.80;15.90;;;6.20;99.90;;;;;;5002061;28;20123;-79
2022/11/28 01:55:25;;;;;;;19.33;15.10;;;6.20;99.90;;;;;;4991544;28;20109;-79
2022/11/28 01:57:53;;;;;;;22.95;16.67;;;6.20;99.90;;;;;;4967639;28;20046;-80
2022/11/28 02:00:20;;;;;;;20.95;15.60;;;6.20;99.90;;;;;;4985996;28;20121;-79
2022/11/28 02:02:53;;;;;;;22.10;16.08;;;6.20;99.90;;;;;;4985511;28;20389;-79
2022/11/28 02:05:20;;;;;;;17.20;15.05;;;6.20;99.90;;;;;;4993825;28;20034;-79
2022/11/28 02:07:47;;;;;;;22.65;17.02;;;6.20;99.90;;;;;;4958664;28;20042;-79
2022/11/28 02:10:23;;;;;;;19.60;15.93;;;6.30;99.90;;;;;;5011130;28;20039;-78
2022/11/28 02:12:57;;;;;;;20.17;16.20;;;6.30;99.90;;;;;;4970030;28;20053;-79
2022/11/28 02:15:46;;;;;;;18.17;15.65;;;6.30;99.90;;;;;;4976708;28;20049;-78
2022/11/28 02:18:21;;;;;;;21.38;16.98;;;6.30;99.90;;;;;;4974628;28;20045;-78
2022/11/28 02:21:15;;;;;;;19.17;15.55;;;6.30;99.90;;;;;;4972859;28;20042;-78
2022/11/28 02:23:50;;;;;;;25.10;18.50;;;6.30;99.90;;;;;;4998097;28;20582;-79
2022/11/28 02:26:18;;;;;;;26.25;16.52;;;6.30;99.90;;;;;;4973897;28;20069;-78
2022/11/28 02:28:47;;;;;;;25.75;17.20;;;6.30;99.90;;;;;;4963080;28;20038;-79
2022/11/28 02:31:25;;;;;;;25.98;18.63;;;6.30;99.90;;;;;;4986397;28;20042;-79
2022/11/28 02:33:55;;;;;;;26.25;18.52;;;6.30;99.90;;;;;;4973562;28;20101;-78
2022/11/28 02:36:56;;;;;;;24.10;19.00;;;6.40;99.90;;;;;;5006000;28;20057;-79
2022/11/28 02:39:48;;;;;;;26.75;19.33;;;6.40;99.90;;;;;;4991439;28;20049;-79
2022/11/28 02:42:19;;;;;;;27.60;19.67;;;6.40;99.90;;;;;;4976042;28;20051;-79
2022/11/28 02:45:09;;;;;;;22.90;17.90;;;6.40;99.90;;;;;;4998434;28;20537;-78
2022/11/28 02:47:44;;;;;;;28.90;20.23;;;6.40;99.90;;;;;;4967392;28;20046;-76
2022/11/28 02:50:25;;;;;;;29.90;20.90;;;6.40;99.90;;;;;;4967807;28;20084;-76
2022/11/28 02:53:14;;;;;;;31.25;21.67;;;6.40;99.90;;;;;;4982482;28;20084;-77
2022/11/28 02:55:41;;;;;;;27.73;21.55;;;6.50;99.90;;;;;;4993141;28;20030;-77
2022/11/28 02:58:10;;;;;;;27.17;21.98;;;6.50;99.90;;;;;;4982131;28;20489;-77
2022/11/28 03:00:38;;;;;;;31.17;23.42;;;6.50;99.90;;;;;;4980417;28;20031;-78
2022/11/28 03:03:16;;;;;;;37.03;25.08;;;6.50;99.90;;;;;;4974727;28;20512;-77
2022/11/28 03:06:04;;;;;;;37.10;24.27;;;6.50;99.90;;;;;;4983114;28;20042;-77
2022/11/28 03:09:07;;;;;;;37.45;24.77;;;6.60;99.90;;;;;;4983370;28;20378;-77
2022/11/28 03:11:51;;;;;;;34.67;24.20;;;6.60;99.90;;;;;;4982770;28;20105;-77
2022/11/28 03:14:23;;;;;;;32.42;24.27;;;6.60;99.90;;;;;;4964701;28;20038;-76
2022/11/28 03:17:17;;;;;;;33.72;24.15;;;6.60;99.90;;;;;;4975484;28;20042;-76
2022/11/28 03:20:08;;;;;;;39.80;25.17;;;6.60;99.90;;;;;;4966119;28;20390;-76
2022/11/28 03:22:39;;;;;;;41.33;25.23;;;6.70;99.90;;;;;;4981604;28;20064;-77
2022/11/28 03:25:10;;;;;;;34.05;23.75;;;6.70;99.90;;;;;;4994674;28;20065;-77
2022/11/28 03:27:47;;;;;;;35.72;24.35;;;6.70;99.90;;;;;;4982148;28;20038;-77
2022/11/28 03:30:36;;;;;;;43.10;25.63;;;6.70;99.90;;;;;;4967694;28;20042;-77
2022/11/28 03:33:02;;;;;;;37.90;24.55;;;6.70;99.90;;;;;;4972994;28;20113;-77
2022/11/28 03:35:33;;;;;;;46.85;26.50;;;6.70;99.90;;;;;;4992523;28;20042;-77
2022/11/28 03:38:18;;;;;;;44.35;25.85;;;6.70;99.90;;;;;;4985739;28;20049;-76
2022/11/28 03:40:49;;;;;;;61.80;28.80;;;6.80;99.90;;;;;;4965982;28;20038;-76
2022/11/28 03:43:22;;;;;;;42.50;25.63;;;6.80;99.90;;;;;;4982985;28;20041;-76
2022/11/28 03:45:54;;;;;;;61.63;28.65;;;6.80;99.90;;;;;;4997310;28;20057;-75
2022/11/28 03:48:36;;;;;;;65.78;29.10;;;6.80;99.90;;;;;;5004778;28;20038;-76
2022/11/28 03:51:08;;;;;;;39.00;25.77;;;6.80;99.90;;;;;;4991227;28;20064;-76
2022/11/28 03:53:45;;;;;;;60.05;29.38;;;6.80;99.90;;;;;;4968714;28;20038;-76
2022/11/28 03:56:19;;;;;;;51.25;28.67;;;6.80;99.90;;;;;;5003645;23;20489;-75
2022/11/28 03:58:53;;;;;;;48.55;28.77;;;6.80;99.90;;;;;;4955778;28;20053;-75
2022/11/28 04:01:51;;;;;;;58.20;29.45;;;6.80;99.90;;;;;;4971670;28;20042;-75
2022/11/28 04:04:52;;;;;;;53.42;30.05;;;6.80;99.90;;;;;;4959176;28;20041;-75
2022/11/28 04:07:43;;;;;;;47.70;28.35;;;6.90;99.90;;;;;;4982537;28;20072;-75
2022/11/28 04:10:26;;;;;;;43.75;28.00;;;6.90;99.90;;;;;;4971422;28;20043;-75
2022/11/28 04:13:08;;;;;;;49.03;28.92;;;6.90;99.90;;;;;;4955605;28;20404;-75
2022/11/28 04:15:52;;;;;;;38.25;27.10;;;6.90;99.90;;;;;;4982815;28;20401;-76
2022/11/28 04:18:56;;;;;;;46.63;28.50;;;6.90;99.90;;;;;;4984526;28;20093;-76
2022/11/28 04:21:40;;;;;;;43.08;26.45;;;6.90;99.90;;;;;;4975399;28;20054;-76
2022/11/28 04:24:19;;;;;;;;;;;6.90;99.90;;;;;;4972846;28;20037;-76
2022/11/28 04:26:54;;;;;;;42.65;26.63;;;7.00;99.90;;;;;;4989805;28;19976;-75
2022/11/28 04:29:26;;;;;;;54.30;29.30;;;7.00;99.90;;;;;;4999069;28;20038;-76
2022/11/28 04:31:56;;;;;;;51.67;29.03;;;7.00;99.90;;;;;;4956364;28;20070;-76
2022/11/28 04:34:24;;;;;;;40.88;27.10;;;7.00;99.90;;;;;;4982536;28;20030;-76
2022/11/28 04:36:52;;;;;;;44.65;28.13;;;7.00;99.90;;;;;;4997977;28;20463;-76
2022/11/28 04:39:22;;;;;;;52.63;29.05;;;7.00;99.90;;;;;;4997953;28;20081;-76
2022/11/28 04:41:52;;;;;;;50.60;28.00;;;7.00;99.90;;;;;;4993984;28;20050;-76
2022/11/28 04:44:41;;;;;;;54.97;29.45;;;7.00;99.90;;;;;;4982934;28;20476;-76
2022/11/28 04:47:07;;;;;;;49.80;28.38;;;7.10;99.90;;;;;;4948379;28;20054;-76
2022/11/28 04:49:33;;;;;;;45.53;28.98;;;7.10;99.90;;;;;;4967078;28;20034;-76
2022/11/28 04:52:40;;;;;;;49.55;29.23;;;7.10;99.90;;;;;;4990037;28;20557;-76
2022/11/28 04:55:33;;;;;;;53.75;29.05;;;7.10;99.90;;;;;;4940029;28;20054;-76
2022/11/28 04:58:05;;;;;;;;;;;7.10;99.90;;;;;;4928624;29;20046;-76
2022/11/28 05:00:35;;;;;;;47.08;27.63;;;7.10;99.90;;;;;;4950521;28;20295;-76
2022/11/28 05:03:02;;;;;;;42.90;27.35;;;7.10;99.90;;;;;;4962538;28;20056;-76
2022/11/28 05:05:31;;;;;;;60.30;28.88;;;7.10;99.90;;;;;;4992504;28;20066;-76
2022/11/28 05:07:58;;;;;;;46.28;25.85;;;7.10;99.90;;;;;;4992385;28;20041;-76
2022/11/28 05:10:24;;;;;;;38.25;24.50;;;7.10;99.90;;;;;;4976845;28;20048;-76
2022/11/28 05:12:57;;;;;;;40.53;24.85;;;7.10;99.90;;;;;;4968145;28;20129;-76
2022/11/28 05:15:25;;;;;;;33.85;21.95;;;7.10;99.90;;;;;;4986687;28;20095;-75
2022/11/28 05:17:54;;;;;;;31.08;21.35;;;7.10;99.90;;;;;;4989611;28;20447;-76
2022/11/28 05:20:22;;;;;;;34.58;22.50;;;7.20;99.90;;;;;;4990847;28;20099;-76
2022/11/28 05:22:47;;;;;;;33.90;21.08;;;7.20;99.90;;;;;;4976683;28;20337;-76
2022/11/28 05:25:22;;;;;;;30.30;20.23;;;7.20;99.90;;;;;;4977339;28;20082;-76
2022/11/28 05:27:50;;;;;;;33.45;20.80;;;7.20;99.90;;;;;;4958046;28;20031;-76
2022/11/28 05:30:19;;;;;;;28.08;20.08;;;7.20;99.90;;;;;;4981833;28;20549;-76
2022/11/28 05:32:45;;;;;;;30.90;20.90;;;7.20;99.90;;;;;;4994002;28;20057;-76
2022/11/28 05:35:16;;;;;;;29.30;20.73;;;7.20;99.90;;;;;;4977180;28;20488;-76
2022/11/28 05:37:45;;;;;;;36.45;22.02;;;7.30;99.90;;;;;;4996272;28;20408;-76
2022/11/28 05:40:13;;;;;;;34.75;21.73;;;7.20;99.90;;;;;;4991785;28;20130;-76
2022/11/28 05:42:39;;;;;;;33.85;22.23;;;7.20;99.90;;;;;;4985010;28;20038;-75
2022/11/28 05:45:05;;;;;;;30.58;21.63;;;7.30;99.90;;;;;;4981897;28;20416;-76
2022/11/28 05:47:32;;;;;;;34.30;22.35;;;7.20;99.90;;;;;;4983765;28;20046;-76
2022/11/28 05:49:58;;;;;;;32.42;22.25;;;7.30;99.90;;;;;;4991624;28;20045;-76
2022/11/28 05:52:23;;;;;;;34.88;22.48;;;7.20;99.90;;;;;;4977431;28;20117;-76
2022/11/28 05:54:50;;;;;;;32.28;23.15;;;7.30;99.90;;;;;;4959155;28;20042;-76
2022/11/28 05:57:18;;;;;;;28.38;21.85;;;7.30;99.90;;;;;;4957530;28;20074;-76
2022/11/28 05:59:44;;;;;;;34.10;23.65;;;7.20;99.90;;;;;;4975635;28;20034;-76
2022/11/28 06:02:09;;;;;;;35.47;23.58;;;7.30;99.90;;;;;;4969925;28;20051;-76
2022/11/28 06:04:35;;;;;;;33.40;23.45;;;7.30;99.90;;;;;;4983532;28;20073;-76
2022/11/28 06:07:03;;;;;;;30.10;22.77;;;7.30;99.90;;;;;;4993094;28;20035;-76
2022/11/28 06:09:29;;;;;;;29.17;23.23;;;7.30;99.90;;;;;;4976930;28;20365;-76
2022/11/28 06:11:58;;;;;;;28.50;21.48;;;7.30;99.90;;;;;;4976105;28;20085;-76
2022/11/28 06:14:27;;;;;;;32.50;23.70;;;7.30;99.90;;;;;;4982806;28;20120;-77
2022/11/28 06:17:02;;;;;;;39.13;24.85;;;7.30;99.90;;;;;;4957761;28;20477;-76
2022/11/28 06:19:29;;;;;;;31.55;23.33;;;7.30;99.90;;;;;;4968982;28;20511;-78
2022/11/28 06:21:55;;;;;;;34.80;23.20;;;7.30;99.90;;;;;;4965192;28;20065;-76
2022/11/28 06:24:23;;;;;;;42.55;25.42;;;7.30;99.90;;;;;;4981452;28;20053;-76
2022/11/28 06:26:51;;;;;;;38.63;23.80;;;7.30;99.90;;;;;;4992248;28;20423;-75
2022/11/28 06:29:17;;;;;;;31.67;22.88;;;7.30;99.90;;;;;;4976135;28;20034;-77
2022/11/28 06:31:43;;;;;;;32.45;23.38;;;7.30;99.90;;;;;;4977087;28;20107;-75
2022/11/28 06:34:11;;;;;;;36.95;24.13;;;7.30;99.90;;;;;;4973604;28;20038;-76
2022/11/28 06:36:40;;;;;;;33.85;23.27;;;7.20;99.90;;;;;;4967041;28;20397;-76
2022/11/28 06:39:06;;;;;;;32.15;23.52;;;7.30;99.90;;;;;;4972067;28;20054;-76
2022/11/28 06:41:31;;;;;;;35.72;23.23;;;7.30;99.90;;;;;;4971535;28;20038;-76
2022/11/28 06:43:57;;;;;;;33.88;23.10;;;7.40;99.90;;;;;;4975976;28;20026;-76
2022/11/28 06:46:23;;;;;;;24.13;20.65;;;7.30;99.90;;;;;;4975688;28;20036;-76
2022/11/28 06:48:51;;;;;;;26.90;21.42;;;7.30;99.90;;;;;;4964238;28;20506;-76
2022/11/28 06:51:18;;;;;;;34.10;22.23;;;7.30;99.90;;;;;;4956864;28;20046;-75
2022/11/28 06:53:44;;;;;;;31.60;21.35;;;7.30;99.90;;;;;;4959983;28;20042;-76
2022/11/28 06:56:18;;;;;;;38.55;22.88;;;7.30;99.90;;;;;;4975512;28;20105;-75
2022/11/28 06:58:45;;;;;;;29.90;19.65;;;7.30;99.90;;;;;;4972945;28;20053;-75
2022/11/28 07:01:19;;;;;;;29.45;20.88;;;7.30;99.90;;;;;;4969812;28;20501;-75
2022/11/28 07:03:46;;;;;;;26.63;20.13;;;7.30;99.90;;;;;;4970162;28;20117;-75
2022/11/28 07:06:14;;;;;;;32.00;21.08;;;7.30;99.90;;;;;;4952827;28;20070;-75
2022/11/28 07:08:40;;;;;;;28.10;19.42;;;7.30;99.90;;;;;;4974732;28;20054;-75
2022/11/28 07:11:11;;;;;;;32.22;20.77;;;7.30;99.90;;;;;;4969383;28;20045;-77
2022/11/28 07:13:40;;;;;;;28.80;18.83;;;7.30;99.90;;;;;;4967214;28;20405;-76
2022/11/28 07:16:07;;;;;;;32.22;20.55;;;7.30;99.90;;;;;;4975822;28;20416;-76
2022/11/28 07:18:33;;;;;;;25.40;18.52;;;7.30;99.90;;;;;;4975432;28;20050;-75
2022/11/28 07:20:59;;;;;;;26.30;18.48;;;7.30;99.90;;;;;;4975568;28;20053;-75
2022/11/28 07:23:25;;;;;;;34.38;19.50;;;7.30;99.90;;;;;;5008129;28;20038;-76
2022/11/28 07:25:50;;;;;;;33.35;19.92;;;7.30;99.90;;;;;;4978761;28;20061;-75
2022/11/28 07:28:16;;;;;;;39.28;19.92;;;7.40;99.90;;;;;;4981190;28;20138;-75
2022/11/28 07:30:42;;;;;;;41.45;20.83;;;7.30;99.90;;;;;;4994601;28;20049;-75
2022/11/28 07:33:08;;;;;;;45.63;20.58;;;7.40;99.90;;;;;;4995722;28;20045;-75
2022/11/28 07:35:34;;;;;;;32.53;18.13;;;7.30;99.90;;;;;;4995071;28;20045;-75
2022/11/28 07:37:59;;;;;;;32.63;19.25;;;7.30;99.90;;;;;;4995303;28;20042;-75
2022/11/28 07:40:25;;;;;;;35.10;18.55;;;7.30;99.90;;;;;;4995689;28;20045;-75
2022/11/28 07:42:51;;;;;;;24.23;17.38;;;7.30;99.90;;;;;;4995769;28;20044;-75
2022/11/28 07:45:17;;;;;;;35.25;18.05;;;7.30;99.90;;;;;;4995304;28;20487;-75
2022/11/28 07:47:43;;;;;;;36.90;18.73;;;7.30;99.90;;;;;;4995290;28;20046;-75
2022/11/28 07:50:09;;;;;;;27.83;17.33;;;7.40;99.90;;;;;;4995707;28;20056;-75
2022/11/28 07:52:34;;;;;;;30.38;17.40;;;7.40;99.90;;;;;;4995535;28;20050;-75
2022/11/28 07:55:00;;;;;;;37.90;18.30;;;7.40;99.90;;;;;;4995711;28;20121;-75
2022/11/28 07:57:26;;;;;;;28.52;17.10;;;7.50;99.90;;;;;;4995454;28;20045;-75
2022/11/28 07:59:52;;;;;;;33.92;18.55;;;7.40;99.90;;;;;;4995522;28;20042;-75
2022/11/28 08:02:18;;;;;;;34.92;18.08;;;7.40;99.90;;;;;;4995831;28;20081;-75
2022/11/28 08:04:44;;;;;;;30.75;17.65;;;7.40;99.90;;;;;;5012325;28;20045;-75
2022/11/28 08:07:12;;;;;;;38.78;18.10;;;7.40;99.90;;;;;;4995819;28;20076;-75
2022/11/28 08:09:38;;;;;;;32.95;16.85;;;7.40;99.90;;;;;;4994857;28;20038;-75
2022/11/28 08:12:04;;;;;;;49.25;19.15;;;7.40;99.90;;;;;;4995776;28;20041;-75
2022/11/28 08:14:30;;;;;;;45.50;19.85;;;7.40;99.90;;;;;;4995712;28;20038;-75
2022/11/28 08:16:56;;;;;;;37.83;17.00;;;7.40;99.90;;;;;;4996100;28;20042;-76
2022/11/28 08:19:23;;;;;;;39.05;18.50;;;7.40;99.90;;;;;;4995725;28;20042;-75
2022/11/28 08:21:48;;;;;;;23.90;16.08;;;7.40;99.90;;;;;;4995019;28;20038;-75
2022/11/28 08:24:14;;;;;;;29.88;17.17;;;7.40;99.90;;;;;;4995129;28;20129;-75
2022/11/28 08:26:40;;;;;;;52.92;20.00;;;7.40;99.90;;;;;;4995125;28;20049;-75
2022/11/28 08:29:06;;;;;;;40.42;19.05;;;7.40;99.90;;;;;;5011417;28;20034;-76
2022/11/28 08:31:34;;;;;;;29.95;17.13;;;7.40;99.90;;;;;;4995242;28;20080;-77
2022/11/28 08:34:03;;;;;;;27.17;16.98;;;7.40;99.90;;;;;;4994689;28;20046;-77
2022/11/28 08:36:29;;;;;;;37.00;18.58;;;7.40;99.90;;;;;;5010738;28;20042;-77
2022/11/28 08:38:55;;;;;;;31.70;18.70;;;7.50;99.90;;;;;;4994451;28;20060;-77
2022/11/28 08:41:23;;;;;;;35.20;18.52;;;7.50;99.90;;;;;;4994304;28;20037;-77
2022/11/28 08:43:49;;;;;;;31.70;18.13;;;7.50;99.90;;;;;;4994121;28;20073;-77
2022/11/28 08:46:18;;;;;;;30.90;17.75;;;7.50;99.90;;;;;;4994038;28;20046;-78
2022/11/28 08:48:51;;;;;;;44.63;19.35;;;7.50;99.90;;;;;;4994214;28;20128;-78
2022/11/28 08:51:21;;;;;;;;;;;7.50;99.90;;;;;;4994748;28;20048;-78
2022/11/28 08:53:46;;;;;;;43.60;19.67;;;7.50;99.90;;;;;;4993782;28;20356;-78
2022/11/28 08:56:12;;;;;;;46.85;20.55;;;7.50;99.90;;;;;;4994102;28;20160;-78
2022/11/28 08:58:39;;;;;;;41.55;19.30;;;7.60;99.90;;;;;;4994371;28;20473;-78
2022/11/28 09:01:18;;;;;;;26.42;17.45;;;7.60;99.90;;;;;;4994151;28;20046;-78
2022/11/28 09:03:44;;;;;;;31.67;17.95;;;7.60;99.90;;;;;;4994100;28;20037;-78
2022/11/28 09:06:14;;;;;;;47.72;19.38;;;7.60;99.90;;;;;;4993882;28;20042;-78
2022/11/28 09:08:40;;;;;;;43.95;19.60;;;7.60;99.90;;;;;;4993263;28;20496;-78
2022/11/28 09:11:08;;;;;;;40.15;19.30;;;7.60;99.90;;;;;;4993812;28;20049;-78
2022/11/28 09:13:35;;;;;;;36.78;18.10;;;7.60;99.90;;;;;;4994236;28;20034;-78
2022/11/28 09:16:02;;;;;;;22.88;16.35;;;7.60;99.90;;;;;;4994343;28;20510;-78
2022/11/28 09:18:28;;;;;;;33.80;18.45;;;7.70;99.90;;;;;;4993838;28;20080;-78
2022/11/28 09:21:09;;;;;;;38.90;19.38;;;7.70;99.90;;;;;;4994154;28;20069;-78
2022/11/28 09:23:36;;;;;;;38.92;18.92;;;7.70;99.90;;;;;;4998192;28;20103;-77
2022/11/28 09:26:14;;;;;;;49.83;19.77;;;7.70;99.90;;;;;;4997606;28;20077;-78
2022/11/28 09:28:41;;;;;;;19.95;15.40;;;7.70;99.90;;;;;;5013476;28;20099;-78
2022/11/28 09:31:08;;;;;;;43.50;20.00;;;7.70;99.90;;;;;;4997174;28;20498;-78
2022/11/28 09:33:35;;;;;;;39.92;18.80;;;7.80;99.90;;;;;;4997256;28;20140;-78
2022/11/28 09:36:18;;;;;;;40.03;18.38;;;7.80;99.90;;;;;;4997474;28;20041;-78
2022/11/28 09:38:45;;;;;;;32.65;16.88;;;7.80;99.90;;;;;;4997628;28;20496;-78
2022/11/28 09:41:35;;;;;;;31.52;16.83;;;7.80;99.90;;;;;;4997384;28;20042;-78
2022/11/28 09:44:21;;;;;;;31.52;15.95;;;7.80;99.90;;;;;;4997309;28;20041;-78
2022/11/28 09:46:53;;;;;;;34.03;16.48;;;7.80;99.90;;;;;;4997315;28;20496;-78
2022/11/28 09:49:32;;;;;;;28.63;16.73;;;7.80;99.90;;;;;;4997609;28;20396;-78
2022/11/28 09:52:31;;;;;;;41.30;16.40;;;7.90;99.90;;;;;;4996853;28;20049;-78
2022/11/28 09:55:13;;;;;;;24.95;14.50;;;7.80;99.90;;;;;;4997360;28;20133;-78
2022/11/28 09:57:50;;;;;;;21.58;14.40;;;7.90;99.90;;;;;;4997376;28;20053;-78
2022/11/28 10:00:21;;;;;;;27.33;14.55;;;7.90;99.90;;;;;;4996900;28;20045;-78
2022/11/28 10:02:56;;;;;;;27.65;14.25;;;7.90;99.90;;;;;;4997074;28;20044;-78
2022/11/28 10:05:31;;;;;;;22.30;13.88;;;7.90;99.90;;;;;;4997282;28;20410;-78
2022/11/28 10:08:21;;;;;;;29.27;14.93;;;8.00;99.90;;;;;;4997085;28;20038;-78
2022/11/28 10:11:00;;;;;;;30.65;14.25;;;8.00;99.90;;;;;;4996801;28;20050;-78
2022/11/28 10:14:04;;;;;;;33.85;14.40;;;8.10;99.90;;;;;;4997063;28;20048;-78
2022/11/28 10:17:08;;;;;;;30.45;14.70;;;8.10;99.90;;;;;;5003296;28;20049;-77
2022/11/28 10:19:53;;;;;;;30.02;14.65;;;8.10;99.90;;;;;;5006165;28;20042;-78
2022/11/28 10:22:28;;;;;;;25.52;13.65;;;8.20;99.90;;;;;;4997931;28;20695;-78
2022/11/28 10:24:59;;;;;;;21.80;12.48;;;8.20;99.90;;;;;;4997755;28;20041;-78
2022/11/28 10:27:33;;;;;;;24.30;12.50;;;8.20;99.90;;;;;;4997328;28;20455;-77
2022/11/28 10:30:17;;;;;;;25.42;12.63;;;8.20;99.90;;;;;;4998167;28;20034;-77
2022/11/28 10:32:48;;;;;;;28.70;13.38;;;8.20;99.90;;;;;;4996770;28;20063;-79
2022/11/28 10:35:39;;;;;;;34.33;13.52;;;8.20;99.90;;;;;;4997286;28;20069;-77
2022/11/28 10:38:30;;;;;;;40.30;13.88;;;8.20;99.90;;;;;;4996803;28;20161;-78
2022/11/28 10:41:02;;;;;;;31.67;12.98;;;8.20;99.90;;;;;;4996271;28;20046;-78
2022/11/28 10:43:42;;;;;;;27.60;12.93;;;8.30;99.90;;;;;;4996976;28;20488;-78
2022/11/28 10:46:23;;;;;;;20.83;13.10;;;8.30;99.90;;;;;;4996407;28;20045;-78
2022/11/28 10:49:29;;;;;;;26.50;12.52;;;8.30;99.90;;;;;;5012797;28;20034;-78
2022/11/28 10:52:10;;;;;;;22.13;13.00;;;8.30;99.90;;;;;;4996835;28;20046;-78
2022/11/28 10:55:12;;;;;;;25.58;12.63;;;8.30;99.90;;;;;;4996159;28;20045;-77
2022/11/28 10:58:09;;;;;;;24.17;13.20;;;8.40;99.90;;;;;;4994662;28;20104;-78
2022/11/28 11:00:36;;;;;;;20.65;11.93;;;8.40;99.90;;;;;;4996083;28;20041;-78
2022/11/28 11:03:04;;;;;;;30.77;13.05;;;8.40;99.90;;;;;;4996386;28;20092;-78
2022/11/28 11:05:35;;;;;;;21.27;12.48;;;8.40;99.90;;;;;;4996133;28;20049;-78
2022/11/28 11:08:14;;;;;;;23.67;12.05;;;8.40;99.90;;;;;;4995631;28;20038;-78
2022/11/28 11:11:17;;;;;;;19.20;11.20;;;8.40;99.90;;;;;;4996295;28;20453;-78
2022/11/28 11:13:55;;;;;;;22.25;12.27;;;8.40;99.90;;;;;;4995909;28;20133;-78
2022/11/28 11:16:21;;;;;;;18.05;11.30;;;8.40;99.90;;;;;;4996014;28;20120;-77
2022/11/28 11:18:47;;;;;;;18.10;11.07;;;8.40;99.90;;;;;;4995891;28;20130;-78
2022/11/28 11:21:26;;;;;;;17.38;11.00;;;8.40;99.90;;;;;;4995519;28;20121;-77
2022/11/28 11:24:17;;;;;;;18.38;11.13;;;8.40;99.90;;;;;;4996431;28;20038;-78
2022/11/28 11:26:47;;;;;;;42.35;14.13;;;8.40;99.90;;;;;;4995581;28;20125;-78
2022/11/28 11:29:31;;;;;;;21.40;12.18;;;8.40;99.90;;;;;;4995939;28;20038;-78
2022/11/28 11:32:02;;;;;;;25.67;12.98;;;8.50;99.90;;;;;;4996273;28;20045;-78
2022/11/28 11:34:35;;;;;;;25.52;12.65;;;8.50;99.90;;;;;;4996049;28;20048;-78
2022/11/28 11:37:39;;;;;;;19.77;12.30;;;8.50;99.90;;;;;;4995698;28;20045;-78
2022/11/28 11:40:20;;;;;;;22.42;12.82;;;8.50;99.90;;;;;;4940082;28;20054;-78
2022/11/28 11:42:59;;;;;;;24.63;12.73;;;8.50;99.90;;;;;;4990984;28;20049;-78
2022/11/28 11:45:32;;;;;;;19.40;12.63;;;8.50;99.90;;;;;;4995031;28;20547;-78
2022/11/28 11:47:57;;;;;;;;;;;8.60;99.90;;;;;;4995918;28;20459;-78
2022/11/28 11:50:26;;;;;;;19.45;12.27;;;8.60;99.90;;;;;;4995405;28;19973;-78
2022/11/28 11:53:01;;;;;;;18.42;12.10;;;8.60;99.90;;;;;;4995232;28;20542;-77
2022/11/28 11:55:31;;;;;;;20.15;12.40;;;8.60;99.90;;;;;;4994973;28;20050;-78
2022/11/28 11:58:03;;;;;;;17.85;12.18;;;8.60;99.90;;;;;;4995667;28;20044;-78
2022/11/28 12:00:39;;;;;;;20.30;12.60;;;8.60;99.90;;;;;;4995977;28;20396;-78
2022/11/28 12:03:45;;;;;;;20.35;12.15;;;8.50;99.90;;;;;;4995567;28;20092;-78
2022/11/28 12:06:16;;;;;;;18.35;11.95;;;8.60;99.90;;;;;;4982486;28;20056;-78
2022/11/28 12:08:50;;;;;;;30.17;13.80;;;8.50;99.90;;;;;;4995464;28;20120;-78
2022/11/28 12:11:38;;;;;;;25.23;13.25;;;8.50;99.90;;;;;;4995514;28;20052;-78
2022/11/28 12:14:34;;;;;;;29.92;13.90;;;8.50;99.90;;;;;;4995583;28;20042;-78
2022/11/28 12:17:24;;;;;;;24.70;12.60;;;8.50;99.90;;;;;;4995259;28;20056;-78
2022/11/28 12:20:20;;;;;;;25.50;13.48;;;8.60;99.90;;;;;;4995358;28;20074;-78
2022/11/28 12:23:05;;;;;;;21.58;12.88;;;8.60;99.90;;;;;;4995843;28;20147;-78
2022/11/28 12:26:12;;;;;;;26.33;13.65;;;8.60;99.90;;;;;;4995492;28;20507;-77
2022/11/28 12:29:16;;;;;;;27.20;13.77;;;8.60;99.90;;;;;;4991968;28;20064;-78
2022/11/28 12:32:03;;;;;;;24.90;13.93;;;8.60;99.90;;;;;;5009565;28;20081;-77
2022/11/28 12:34:44;;;;;;;21.42;12.98;;;8.70;99.90;;;;;;4994664;28;20112;-78
2022/11/28 12:37:26;;;;;;;25.02;13.75;;;8.60;99.90;;;;;;4994767;28;20041;-78
2022/11/28 12:40:27;;;;;;;34.05;15.95;;;8.70;99.90;;;;;;4995740;28;20045;-77
2022/11/28 12:43:05;;;;;;;40.10;14.35;;;8.70;99.90;;;;;;4995286;28;20584;-78
2022/11/28 12:46:03;;;;;;;23.77;13.48;;;8.70;99.90;;;;;;4994998;28;20100;-78
2022/11/28 12:49:03;;;;;;;27.73;14.40;;;8.60;99.90;;;;;;4982119;28;20402;-78
2022/11/28 12:51:42;;;;;;;25.85;14.77;;;8.70;99.90;;;;;;4995814;28;20033;-77
2022/11/28 12:54:17;;;;;;;20.70;13.23;;;8.70;99.90;;;;;;4995627;28;20042;-78
2022/11/28 12:56:48;;;;;;;26.08;14.07;;;8.70;99.90;;;;;;4997712;28;20085;-78
2022/11/28 12:59:27;;;;;;;21.65;13.30;;;8.70;99.90;;;;;;4999233;28;20187;-77
2022/11/28 13:01:56;;;;;;;26.73;13.88;;;8.70;99.90;;;;;;4999074;28;20177;-77
2022/11/28 13:04:49;;;;;;;26.92;13.45;;;8.60;99.90;;;;;;4999215;28;20391;-77
2022/11/28 13:07:30;;;;;;;30.15;13.90;;;8.70;99.90;;;;;;4999038;28;20053;-78
2022/11/28 13:10:12;;;;;;;48.90;14.65;;;8.70;99.90;;;;;;4999535;28;20076;-78
2022/11/28 13:12:56;;;;;;;27.60;14.38;;;8.70;99.90;;;;;;5014119;28;20025;-78